Time;durP1;ratioP1;P1;durP2;ratioP2;P2;SDS_P1;SDS_P2;PMS_P1;PMS_P2;Temp;Humidity;BMP_temperature;BMP_pressure;BME280_temperature;BME280_humidity;BME280_pressure;Samples;Min_cycle;Max_cycle;Signal;HPM_P1;HPM_P2
2023/03/02 00:02:10;;;;;;;16.55;8.65;;;;;;;3.33;66.57;101250.16;8374883;28;20037;-53
2023/03/02 00:06:11;;;;;;;20.10;9.15;;;;;;;3.19;67.10;101260.69;8373262;28;20040;-54
2023/03/02 00:10:11;;;;;;;20.90;9.63;;;;;;;3.00;68.17;101254.53;8373916;28;20397;-53
2023/03/02 00:14:12;;;;;;;16.60;9.05;;;;;;;2.80;69.13;101259.94;8374177;28;20043;-53
2023/03/02 00:18:12;;;;;;;19.13;8.77;;;;;;;2.65;69.54;101268.69;8355684;28;20037;-60
2023/03/02 00:22:13;;;;;;;19.25;9.50;;;;;;;2.69;69.74;101270.28;8375222;28;20040;-60
2023/03/02 00:26:13;;;;;;;13.93;7.97;;;;;;;2.77;69.56;101273.44;8374545;28;20106;-60
2023/03/02 00:30:14;;;;;;;20.33;9.73;;;;;;;2.80;69.90;101278.63;8374134;28;20476;-60
2023/03/02 00:34:15;;;;;;;20.65;9.85;;;;;;;2.83;69.52;101273.16;8373498;28;20044;-60
2023/03/02 00:38:16;;;;;;;18.90;9.20;;;;;;;2.78;69.72;101271.66;8356024;28;20051;-60
2023/03/02 00:42:17;;;;;;;19.23;9.50;;;;;;;2.89;69.88;101271.97;8357330;28;20025;-60
2023/03/02 00:46:22;;;;;;;18.73;9.27;;;;;;;2.86;69.98;101262.31;8373418;28;20071;-60
2023/03/02 00:50:22;;;;;;;16.98;8.95;;;;;;;2.85;70.51;101268.59;8370362;28;20406;-60
2023/03/02 00:54:23;;;;;;;19.63;9.85;;;;;;;2.76;71.21;101270.84;8371741;28;20080;-60
2023/03/02 00:58:25;;;;;;;24.63;10.38;;;;;;;2.71;71.32;101265.72;8371638;28;20041;-60
2023/03/02 01:02:26;;;;;;;17.02;9.48;;;;;;;2.64;71.40;101266.97;8373936;28;20399;-60
2023/03/02 01:06:27;;;;;;;18.63;10.05;;;;;;;2.57;72.00;101259.31;8372089;28;20043;-60
2023/03/02 01:10:27;;;;;;;18.00;9.15;;;;;;;2.47;72.22;101256.19;8371425;28;20032;-60
2023/03/02 01:14:28;;;;;;;19.80;9.02;;;;;;;2.42;72.60;101249.34;8372730;28;20353;-60
2023/03/02 01:18:29;;;;;;;17.73;9.88;;;;;;;2.24;73.04;101247.53;8373038;28;20060;-60
2023/03/02 01:22:29;;;;;;;21.55;11.13;;;;;;;2.01;74.28;101232.56;8356457;28;20036;-60
2023/03/02 01:26:30;;;;;;;21.92;9.88;;;;;;;1.95;75.17;101240.84;8352927;28;20048;-60
2023/03/02 01:30:30;;;;;;;23.38;11.02;;;;;;;1.87;75.78;101229.69;8366200;28;20044;-54
2023/03/02 01:34:31;;;;;;;19.73;10.75;;;;;;;1.66;76.45;101230.63;8339938;28;20095;-49
2023/03/02 01:38:31;;;;;;;20.42;10.30;;;;;;;1.74;76.63;101228.50;8340288;28;20040;-58
2023/03/02 01:42:46;;;;;;;23.20;10.27;;;;;;;1.66;76.79;101222.63;8372477;28;20041;-58
2023/03/02 01:46:52;;;;;;;18.23;9.75;;;;;;;1.45;77.28;101208.47;8363738;28;20090;-58
2023/03/02 01:50:53;;;;;;;24.85;10.45;;;;;;;1.56;77.25;101202.66;8372765;28;20044;-58
2023/03/02 01:55:00;;;;;;;21.45;10.23;;;;;;;1.73;77.02;101206.31;8389251;28;20105;-58
2023/03/02 01:59:06;;;;;;;22.77;10.25;;;;;;;1.59;77.31;101197.19;8390601;28;20041;-58
2023/03/02 02:03:11;;;;;;;23.33;10.70;;;;;;;1.17;78.04;101196.38;8371978;28;20048;-58
2023/03/02 02:07:12;;;;;;;19.85;10.43;;;;;;;1.19;78.84;101198.03;8359201;28;20036;-58
2023/03/02 02:11:13;;;;;;;20.25;11.07;;;;;;;1.12;79.09;101193.03;8360276;28;20043;-58
2023/03/02 02:15:14;;;;;;;26.27;10.43;;;;;;;1.42;78.54;101189.06;8389941;28;20044;-58
2023/03/02 02:19:54;;;;;;;26.55;11.23;;;;;;;1.33;78.37;101198.34;8372952;28;20041;-58
2023/03/02 02:24:10;;;;;;;22.95;11.43;;;;;;;1.41;78.87;101195.34;8370167;28;20048;-58
2023/03/02 02:28:17;;;;;;;25.10;10.73;;;;;;;0.98;79.26;101193.63;8390320;28;20043;-58
2023/03/02 02:32:25;;;;;;;22.80;11.38;;;;;;;0.78;80.38;101198.03;8383734;28;20033;-59
2023/03/02 02:36:31;;;;;;;24.70;11.75;;;;;;;0.72;82.24;101192.97;8355806;28;20060;-58
2023/03/02 02:40:47;;;;;;;23.63;11.38;;;;;;;0.41;82.75;101187.16;8358916;28;20040;-58
2023/03/02 02:44:53;;;;;;;22.50;10.45;;;;;;;0.53;83.96;101192.88;8362720;28;20128;-58
2023/03/02 02:48:54;;;;;;;25.45;12.23;;;;;;;0.34;83.99;101196.31;8362880;28;20045;-58
2023/03/02 02:52:59;;;;;;;29.55;11.23;;;;;;;0.17;83.56;101185.44;8361655;28;20044;-58
2023/03/02 02:57:02;;;;;;;26.02;11.35;;;;;;;0.15;84.05;101176.69;8361088;28;20033;-58
2023/03/02 03:01:05;;;;;;;22.17;11.40;;;;;;;0.20;85.58;101185.31;8362672;28;20166;-58
2023/03/02 03:05:14;;;;;;;23.90;11.77;;;;;;;0.26;85.53;101185.09;8375844;28;20037;-58
2023/03/02 03:09:15;;;;;;;22.05;10.38;;;;;;;0.08;84.00;101181.34;8394768;28;20037;-58
2023/03/02 03:13:19;;;;;;;25.08;12.73;;;;;;;-0.01;85.24;101185.25;8394485;28;20063;-59
2023/03/02 03:17:20;;;;;;;21.85;11.02;;;;;;;0.06;86.11;101185.00;8393640;28;20048;-58
2023/03/02 03:21:29;;;;;;;25.60;11.57;;;;;;;-0.11;84.70;101183.00;8394680;28;20120;-59
2023/03/02 03:25:30;;;;;;;24.38;11.10;;;;;;;-0.01;86.07;101181.72;8394644;28;20040;-58
2023/03/02 03:29:33;;;;;;;25.08;10.23;;;;;;;-0.16;83.43;101175.19;8393972;28;20403;-58
2023/03/02 03:33:36;;;;;;;20.88;10.88;;;;;;;-0.11;83.29;101186.53;8375058;28;20037;-59
2023/03/02 03:37:39;;;;;;;23.40;11.60;;;;;;;-0.03;84.77;101181.75;8361501;28;20057;-59
2023/03/02 03:41:41;;;;;;;21.70;11.95;;;;;;;-0.03;85.28;101173.78;8369056;28;20093;-59
2023/03/02 03:45:42;;;;;;;22.90;10.63;;;;;;;-0.46;85.59;101173.66;8393859;28;20101;-59
2023/03/02 03:49:43;;;;;;;22.55;11.23;;;;;;;-0.56;86.69;101163.44;8394199;28;20059;-59
2023/03/02 03:53:44;;;;;;;24.58;11.27;;;;;;;-0.25;86.51;101178.19;8392448;28;20046;-59
2023/03/02 03:57:45;;;;;;;25.83;12.20;;;;;;;-0.30;86.31;101180.13;8392525;28;20040;-59
2023/03/02 04:01:50;;;;;;;26.25;11.43;;;;;;;-0.45;86.90;101175.38;8391489;28;20044;-59
2023/03/02 04:05:52;;;;;;;23.85;10.88;;;;;;;-0.50;86.57;101177.34;8379767;28;20567;-60
2023/03/02 04:10:02;;;;;;;26.67;11.70;;;;;;;-0.67;87.95;101185.03;8392495;28;20517;-59
2023/03/02 04:14:06;;;;;;;23.48;11.43;;;;;;;-0.76;88.21;101180.06;8385808;28;20071;-60
2023/03/02 04:18:07;;;;;;;28.73;12.57;;;;;;;-0.43;86.96;101173.53;8393233;28;20044;-59
2023/03/02 04:22:09;;;;;;;21.73;10.98;;;;;;;-0.29;86.23;101181.88;8382055;28;20060;-59
2023/03/02 04:26:09;;;;;;;24.65;11.93;;;;;;;-0.44;87.40;101166.50;8346883;28;20041;-59
2023/03/02 04:30:12;;;;;;;23.08;11.30;;;;;;;-0.39;86.82;101169.00;8360064;28;20032;-59
2023/03/02 04:34:13;;;;;;;25.90;12.20;;;;;;;-0.61;86.75;101174.22;8381112;28;20041;-61
2023/03/02 04:38:16;;;;;;;28.53;12.10;;;;;;;-0.54;87.91;101177.53;8392368;28;20040;-59
2023/03/02 04:42:19;;;;;;;28.58;12.70;;;;;;;-0.65;88.92;101177.91;8392156;28;20040;-59
2023/03/02 04:46:25;;;;;;;28.00;11.68;;;;;;;-0.92;89.93;101172.69;8391772;28;20037;-60
2023/03/02 04:50:26;;;;;;;25.75;12.07;;;;;;;-0.74;88.59;101170.25;8391849;28;20043;-60
2023/03/02 04:54:27;;;;;;;21.15;11.13;;;;;;;-0.95;89.21;101184.28;8391528;28;20044;-60
2023/03/02 04:58:27;;;;;;;27.35;12.98;;;;;;;-1.01;89.23;101181.81;8390238;28;20090;-59
2023/03/02 05:02:28;;;;;;;23.88;11.23;;;;;;;-1.06;89.24;101175.84;8359650;28;20040;-60
2023/03/02 05:06:28;;;;;;;23.67;11.40;;;;;;;-1.07;89.31;101174.06;8381611;28;20112;-61
2023/03/02 05:10:29;;;;;;;24.95;11.20;;;;;;;-1.18;89.37;101170.94;8388888;28;20081;-60
2023/03/02 05:14:30;;;;;;;27.58;11.60;;;;;;;-1.10;89.92;101171.53;8389559;28;20094;-60
2023/03/02 05:18:30;;;;;;;28.08;12.30;;;;;;;-1.05;89.49;101172.25;8391827;28;20041;-60
2023/03/02 05:22:31;;;;;;;22.35;10.93;;;;;;;-1.14;89.86;101172.56;8391469;28;20513;-60
2023/03/02 05:26:31;;;;;;;28.17;12.35;;;;;;;-1.07;89.18;101163.47;8390650;28;20040;-60
2023/03/02 05:30:36;;;;;;;25.48;11.60;;;;;;;-0.84;89.56;101176.81;8383533;28;20141;-60
2023/03/02 05:34:36;;;;;;;29.85;12.73;;;;;;;-1.07;87.87;101179.38;8379109;28;20119;-59
2023/03/02 05:38:37;;;;;;;26.42;12.00;;;;;;;-1.03;88.37;101186.34;8382849;28;20048;-60
2023/03/02 05:42:37;;;;;;;23.77;11.82;;;;;;;-1.09;88.77;101191.84;8382597;28;20041;-59
2023/03/02 05:46:38;;;;;;;28.55;11.93;;;;;;;-1.00;89.67;101191.53;8389531;28;20516;-53
2023/03/02 05:50:39;;;;;;;35.47;12.82;;;;;;;-1.42;89.51;101182.34;8362449;28;20108;-52
2023/03/02 05:54:40;;;;;;;28.00;13.05;;;;;;;-1.45;92.08;101194.81;8364993;28;20060;-53
2023/03/02 05:58:40;;;;;;;31.13;13.57;;;;;;;-1.44;90.42;101197.44;8374523;28;20049;-59
2023/03/02 06:02:41;;;;;;;27.10;12.80;;;;;;;-1.60;91.70;101196.19;8368534;28;20036;-60
2023/03/02 06:06:41;;;;;;;42.53;14.55;;;;;;;-1.32;91.78;101193.50;8384702;28;20116;-59
2023/03/02 06:10:42;;;;;;;35.10;13.77;;;;;;;-1.21;91.29;101192.25;8376424;28;20118;-60
2023/03/02 06:14:43;;;;;;;27.95;13.63;;;;;;;-1.18;90.80;101188.63;8358430;28;20033;-60
2023/03/02 06:18:43;;;;;;;31.42;13.73;;;;;;;-1.30;91.09;101181.94;8370006;28;20043;-60
2023/03/02 06:22:46;;;;;;;36.92;14.10;;;;;;;-1.22;90.58;101195.81;8383049;28;20082;-60
2023/03/02 06:26:46;;;;;;;28.85;13.60;;;;;;;-1.18;92.22;101194.81;8370946;28;20040;-60
2023/03/02 06:30:47;;;;;;;35.72;13.57;;;;;;;-1.32;90.82;101197.03;8370259;28;20119;-59
2023/03/02 06:34:48;;;;;;;35.70;14.30;;;;;;;-1.43;92.25;101206.25;8375333;28;20508;-59
2023/03/02 06:38:48;;;;;;;33.10;14.07;;;;;;;-1.18;91.98;101208.06;8368074;28;20439;-60
2023/03/02 06:42:49;;;;;;;32.83;13.93;;;;;;;-1.35;92.07;101202.44;8381306;28;20107;-59
2023/03/02 06:46:49;;;;;;;32.45;13.45;;;;;;;-1.24;92.07;101205.63;8360388;28;20498;-59
2023/03/02 06:50:50;;;;;;;32.67;13.32;;;;;;;-0.82;91.27;101201.50;8364672;28;20052;-59
2023/03/02 06:54:50;;;;;;;46.92;14.45;;;;;;;-0.55;90.12;101200.53;8384692;28;20078;-59
2023/03/02 06:58:50;;;;;;;31.13;14.43;;;;;;;-0.38;89.89;101203.47;8389278;28;20528;-59
2023/03/02 07:02:51;;;;;;;33.17;14.13;;;;;;;0.04;88.05;101201.84;8391632;28;20559;-59
2023/03/02 07:06:52;;;;;;;27.95;14.02;;;;;;;0.33;88.02;101210.53;8366914;28;20542;-59
2023/03/02 07:10:53;;;;;;;30.17;13.52;;;;;;;0.38;87.18;101203.22;8361551;28;20407;-59
2023/03/02 07:14:53;;;;;;;40.10;16.00;;;;;;;0.75;85.08;101214.13;8394813;28;20553;-59
2023/03/02 07:18:54;;;;;;;29.10;14.43;;;;;;;0.97;84.90;101207.00;8394952;28;20040;-59
2023/03/02 07:22:54;;;;;;;30.08;13.77;;;;;;;1.17;85.69;101204.38;8394643;28;20079;-59
2023/03/02 07:26:54;;;;;;;36.67;14.80;;;;;;;1.29;83.82;101209.19;8394722;28;20091;-58
2023/03/02 07:30:55;;;;;;;30.08;14.40;;;;;;;1.64;83.28;101200.50;8394729;28;20061;-59
2023/03/02 07:34:55;;;;;;;28.58;14.27;;;;;;;1.71;83.00;101202.84;8366159;28;20053;-60
2023/03/02 07:38:56;;;;;;;39.25;15.95;;;;;;;1.83;83.17;101206.78;8361025;28;20048;-59
2023/03/02 07:42:56;;;;;;;36.20;15.25;;;;;;;2.04;82.57;101205.78;8378577;28;20036;-59
2023/03/02 07:46:57;;;;;;;35.80;15.57;;;;;;;2.38;82.57;101200.59;8394364;28;20039;-59
2023/03/02 07:50:59;;;;;;;36.17;15.10;;;;;;;2.53;79.90;101199.03;8376451;28;20044;-59
2023/03/02 07:55:00;;;;;;;42.28;18.63;;;;;;;2.99;79.85;101210.03;8392974;28;20397;-59
2023/03/02 07:59:00;;;;;;;41.03;17.30;;;;;;;2.90;79.42;101215.81;8376102;28;20060;-59
2023/03/02 08:03:01;;;;;;;39.50;17.20;;;;;;;2.88;80.14;101217.72;8381246;28;20442;-59
2023/03/02 08:07:01;;;;;;;37.13;15.43;;;;;;;3.12;80.41;101215.66;8390175;28;20119;-59
2023/03/02 08:11:07;;;;;;;36.08;16.13;;;;;;;3.25;80.02;101206.94;8393238;28;20493;-59
2023/03/02 08:15:09;;;;;;;32.85;15.18;;;;;;;3.52;79.23;101202.84;8393140;28;20047;-58
2023/03/02 08:19:09;;;;;;;31.23;14.68;;;;;;;3.84;77.31;101202.00;8393709;28;20417;-58
2023/03/02 08:23:10;;;;;;;28.48;14.75;;;;;;;3.56;76.55;101201.75;8393197;28;20056;-58
2023/03/02 08:27:12;;;;;;;30.63;14.25;;;;;;;3.65;76.94;101206.59;8393308;28;20036;-58
2023/03/02 08:31:13;;;;;;;33.60;13.93;;;;;;;3.69;76.30;101202.81;8392547;28;20036;-58
2023/03/02 08:35:13;;;;;;;30.02;13.15;;;;;;;3.75;73.48;101202.50;8361667;28;20044;-58
2023/03/02 08:39:14;;;;;;;24.77;13.23;;;;;;;3.96;73.16;101206.72;8358515;28;20063;-59
2023/03/02 08:43:14;;;;;;;23.00;12.50;;;;;;;4.55;71.84;101205.25;8379103;28;20036;-59
2023/03/02 08:47:15;;;;;;;30.65;12.70;;;;;;;4.70;71.08;101201.72;8392244;28;20041;-58
2023/03/02 08:51:19;;;;;;;32.05;12.52;;;;;;;4.95;69.70;101194.00;8392175;28;20052;-58
2023/03/02 08:55:19;;;;;;;20.60;11.60;;;;;;;5.40;70.57;101196.66;8391189;28;20098;-59
2023/03/02 08:59:20;;;;;;;28.77;13.05;;;;;;;5.37;68.21;101183.44;8392388;28;20044;-58
2023/03/02 09:03:21;;;;;;;26.25;12.93;;;;;;;5.40;68.70;101180.56;8376853;28;20033;-59
2023/03/02 09:07:21;;;;;;;26.25;12.68;;;;;;;5.97;66.87;101183.28;8391010;28;20058;-59
2023/03/02 09:11:21;;;;;;;21.58;10.98;;;;;;;6.14;64.90;101176.84;8392044;28;20036;-58
2023/03/02 09:15:22;;;;;;;27.00;11.82;;;;;;;6.13;65.42;101172.41;8391019;28;20055;-58
2023/03/02 09:19:22;;;;;;;21.67;10.93;;;;;;;6.59;63.58;101173.06;8392030;28;20402;-58
2023/03/02 09:23:25;;;;;;;23.42;10.75;;;;;;;7.20;61.60;101168.88;8391134;28;20032;-58
2023/03/02 09:27:25;;;;;;;19.73;10.13;;;;;;;9.35;56.83;101168.47;8391598;28;20044;-58
2023/03/02 09:31:26;;;;;;;23.23;10.52;;;;;;;10.86;53.33;101162.59;8391339;28;20070;-59
2023/03/02 09:35:26;;;;;;;19.65;9.82;;;;;;;12.02;50.28;101155.28;8389894;28;20043;-58
2023/03/02 09:39:26;;;;;;;19.60;10.35;;;;;;;12.18;50.71;101163.78;8390961;28;20032;-59
2023/03/02 09:43:51;;;;;;;14.57;9.10;;;;;;;12.76;48.16;101166.59;8390879;28;20036;-58
2023/03/02 09:48:09;;;;;;;17.10;9.77;;;;;;;13.17;46.34;101154.69;8391383;28;20045;-58
2023/03/02 09:52:34;;;;;;;19.95;10.13;;;;;;;13.61;44.15;101154.13;8396364;28;20032;-58
2023/03/02 09:56:38;;;;;;;17.73;9.68;;;;;;;12.58;44.87;101168.25;8398243;28;20052;-59
2023/03/02 10:00:42;;;;;;;18.67;9.60;;;;;;;12.76;46.36;101160.31;8397496;28;20037;-58
2023/03/02 10:04:49;;;;;;;21.38;10.48;;;;;;;13.18;45.00;101153.69;8381328;28;20041;-59
2023/03/02 10:08:49;;;;;;;19.30;10.70;;;;;;;14.37;43.73;101155.81;8397568;28;20098;-58
2023/03/02 10:13:15;;;;;;;19.55;10.82;;;;;;;14.24;44.00;101147.16;8396701;28;20037;-59
2023/03/02 10:17:41;;;;;;;21.15;10.73;;;;;;;13.91;44.21;101145.78;8397307;28;20615;-58
2023/03/02 10:21:46;;;;;;;20.02;10.57;;;;;;;14.72;43.11;101137.75;8397230;28;20402;-58
2023/03/02 10:25:52;;;;;;;27.95;11.57;;;;;;;14.38;43.08;101142.06;8381250;28;20044;-59
2023/03/02 10:30:34;;;;;;;21.85;10.63;;;;;;;14.81;43.51;101136.84;8396730;28;20124;-53
2023/03/02 10:34:36;;;;;;;21.75;11.35;;;;;;;15.06;42.27;101130.63;8370431;28;20045;-53
2023/03/02 10:38:37;;;;;;;21.85;11.25;;;;;;;15.67;43.80;101128.88;8363528;28;20029;-53
2023/03/02 10:42:40;;;;;;;19.05;11.40;;;;;;;15.37;41.80;101125.72;8364013;28;20122;-54
2023/03/02 10:46:43;;;;;;;24.00;11.60;;;;;;;15.47;41.79;101119.13;8383415;28;20090;-53
2023/03/02 10:50:43;;;;;;;20.35;11.32;;;;;;;15.36;41.75;101122.09;8395669;28;20033;-53
2023/03/02 10:54:46;;;;;;;26.25;12.45;;;;;;;16.67;40.41;101112.75;8395430;28;20067;-53
2023/03/02 10:58:46;;;;;;;20.00;10.77;;;;;;;15.62;40.65;101112.13;8395825;28;20072;-54
2023/03/02 11:03:00;;;;;;;21.02;11.10;;;;;;;15.48;42.06;101120.88;8383746;28;20040;-53
2023/03/02 11:07:11;;;;;;;22.65;10.75;;;;;;;16.17;41.85;101098.16;8392315;28;20047;-53
2023/03/02 11:11:23;;;;;;;19.65;11.00;;;;;;;17.31;40.34;101099.25;8392278;28;20037;-59
2023/03/02 11:15:30;;;;;;;21.42;11.23;;;;;;;16.48;39.92;101105.69;8394823;28;20032;-59
2023/03/02 11:19:36;;;;;;;21.75;11.00;;;;;;;17.60;40.27;101094.16;8395213;28;20043;-59
2023/03/02 11:24:14;;;;;;;23.40;11.15;;;;;;;17.01;39.06;101099.88;8394821;28;20055;-58
2023/03/02 11:28:38;;;;;;;17.70;10.50;;;;;;;16.80;41.40;101102.25;8394727;28;20036;-59
2023/03/02 11:32:48;;;;;;;21.02;10.80;;;;;;;16.52;40.25;101104.34;8366344;28;20043;-59
2023/03/02 11:37:15;;;;;;;18.95;10.63;;;;;;;16.78;40.43;101096.06;8361658;28;20539;-59
2023/03/02 11:41:28;;;;;;;18.73;10.55;;;;;;;17.39;39.17;101086.41;8365229;28;20043;-59
2023/03/02 11:45:33;;;;;;;20.27;11.32;;;;;;;16.03;41.37;101085.13;8394144;28;20113;-59
2023/03/02 11:49:41;;;;;;;18.38;10.90;;;;;;;16.66;40.81;101079.16;8393974;28;20047;-60
2023/03/02 11:53:49;;;;;;;19.02;11.45;;;;;;;16.29;41.42;101083.22;8385108;28;20047;-59
2023/03/02 11:57:52;;;;;;;20.13;10.98;;;;;;;16.93;41.01;101083.47;8394142;28;20067;-59
2023/03/02 12:01:55;;;;;;;16.23;10.53;;;;;;;17.62;39.74;101081.16;8372495;28;20094;-60
2023/03/02 12:06:01;;;;;;;19.60;10.77;;;;;;;16.96;40.41;101074.94;8380691;28;20340;-59
2023/03/02 12:10:22;;;;;;;26.63;10.75;;;;;;;15.34;41.86;101080.50;8393808;28;20047;-59
2023/03/02 12:14:42;;;;;;;20.73;10.82;;;;;;;13.42;46.42;101080.81;8391989;28;20040;-59
2023/03/02 12:18:46;;;;;;;19.42;11.00;;;;;;;13.48;47.15;101072.91;8393101;28;20037;-59
2023/03/02 12:22:46;;;;;;;16.58;10.18;;;;;;;15.63;45.54;101070.22;8392841;28;20044;-59
2023/03/02 12:26:47;;;;;;;19.90;10.85;;;;;;;15.16;43.31;101066.03;8393292;28;20068;-59
2023/03/02 12:31:00;;;;;;;15.73;9.80;;;;;;;15.89;42.75;101053.00;8392143;28;20044;-59
2023/03/02 12:35:09;;;;;;;19.10;9.68;;;;;;;16.51;42.05;101058.97;8363464;28;20080;-60
2023/03/02 12:39:25;;;;;;;18.70;9.80;;;;;;;15.33;44.17;101057.00;8359411;28;20068;-60
2023/03/02 12:43:35;;;;;;;20.58;10.27;;;;;;;14.51;44.34;101058.22;8380631;28;20089;-60
2023/03/02 12:47:40;;;;;;;16.75;9.75;;;;;;;14.74;44.72;101047.78;8392031;28;20465;-57
2023/03/02 12:51:48;;;;;;;15.50;10.07;;;;;;;14.95;44.79;101041.00;8356254;28;20560;-60
2023/03/02 12:55:48;;;;;;;14.40;9.77;;;;;;;14.83;43.65;101035.94;8356720;28;20037;-60
2023/03/02 12:59:52;;;;;;;17.73;9.63;;;;;;;13.23;46.12;101034.63;8355971;28;20037;-60
2023/03/02 13:03:54;;;;;;;18.17;10.73;;;;;;;13.43;47.56;101036.34;8372147;28;20102;-60
2023/03/02 13:08:17;;;;;;;19.42;10.52;;;;;;;13.08;48.16;101025.22;8355779;28;20509;-60
2023/03/02 13:12:18;;;;;;;19.77;10.57;;;;;;;11.99;49.68;101022.78;8367002;28;20040;-60
2023/03/02 13:16:27;;;;;;;19.42;10.77;;;;;;;11.46;51.65;101005.81;8388279;28;20127;-60
2023/03/02 13:20:29;;;;;;;22.80;10.38;;;;;;;11.18;50.90;100999.25;8389439;28;20119;-60
2023/03/02 13:24:34;;;;;;;20.50;10.00;;;;;;;11.09;51.73;101005.44;8385669;28;20044;-60
2023/03/02 13:28:38;;;;;;;17.20;10.93;;;;;;;10.88;51.83;100999.16;8388746;28;20078;-60
2023/03/02 13:32:41;;;;;;;24.70;11.35;;;;;;;10.81;52.16;100995.28;8370063;28;20033;-60
2023/03/02 13:36:43;;;;;;;;;;;;;;;10.90;51.98;100989.09;8355754;28;20041;-53
2023/03/02 13:40:47;;;;;;;14.40;8.80;;;;;;;10.95;52.10;100986.81;8356278;28;19979;-53
2023/03/02 13:44:47;;;;;;;18.13;10.33;;;;;;;10.95;51.71;100992.25;8355082;28;20290;-54
2023/03/02 13:48:57;;;;;;;17.67;9.45;;;;;;;11.05;50.95;100981.50;8355575;28;20045;-53
2023/03/02 13:53:04;;;;;;;22.10;10.23;;;;;;;11.18;51.50;100983.00;8354720;28;20185;-54
2023/03/02 13:57:05;;;;;;;20.45;9.13;;;;;;;11.07;51.35;100974.94;8362101;28;20037;-53
2023/03/02 14:01:06;;;;;;;17.25;9.18;;;;;;;11.15;52.02;100969.75;8388583;28;20040;-53
2023/03/02 14:05:14;;;;;;;17.73;9.02;;;;;;;11.23;50.73;100967.22;8346433;28;20407;-54
2023/03/02 14:09:15;;;;;;;16.77;8.80;;;;;;;11.30;50.61;100963.00;8354954;28;20037;-53
2023/03/02 14:13:20;;;;;;;16.38;9.20;;;;;;;11.31;49.77;100962.00;8357154;28;20056;-53
2023/03/02 14:17:23;;;;;;;16.27;8.13;;;;;;;11.25;49.24;100959.81;8370346;28;20040;-53
2023/03/02 14:21:25;;;;;;;18.25;8.75;;;;;;;11.25;49.39;100951.72;8387691;28;20089;-55
2023/03/02 14:25:26;;;;;;;16.17;8.00;;;;;;;11.33;49.19;100954.59;8388147;28;20044;-52
2023/03/02 14:29:30;;;;;;;16.48;8.25;;;;;;;11.41;50.05;100946.66;8368511;28;20059;-52
2023/03/02 14:33:30;;;;;;;14.77;9.35;;;;;;;11.57;50.13;100941.63;8371419;28;20064;-52
2023/03/02 14:37:31;;;;;;;14.82;8.63;;;;;;;11.53;49.92;100948.28;8357948;28;20503;-51
2023/03/02 14:41:31;;;;;;;17.23;7.97;;;;;;;11.53;48.38;100937.44;8366901;28;20414;-53
2023/03/02 14:45:31;;;;;;;13.52;8.05;;;;;;;11.57;48.24;100935.34;8393434;28;20041;-59
2023/03/02 14:49:32;;;;;;;15.30;8.68;;;;;;;11.53;47.77;100929.31;8393713;28;20093;-58
2023/03/02 14:53:33;;;;;;;14.80;7.05;;;;;;;11.62;48.68;100933.94;8390423;28;20067;-58
2023/03/02 14:57:37;;;;;;;10.93;7.40;;;;;;;11.67;49.02;100931.69;8374892;28;20469;-59
2023/03/02 15:01:38;;;;;;;14.38;7.50;;;;;;;11.71;48.28;100926.84;8391035;28;20317;-58
2023/03/02 15:05:39;;;;;;;11.32;6.97;;;;;;;11.69;48.26;100918.84;8363134;28;20418;-58
2023/03/02 15:09:42;;;;;;;15.95;8.07;;;;;;;11.68;47.42;100910.88;8372739;28;20490;-59
2023/03/02 15:13:43;;;;;;;10.15;6.95;;;;;;;11.77;47.79;100916.31;8383017;28;20044;-58
2023/03/02 15:17:43;;;;;;;16.15;6.50;;;;;;;11.77;48.55;100905.50;8392210;28;20082;-59
2023/03/02 15:21:45;;;;;;;17.75;6.85;;;;;;;11.86;48.35;100915.50;8370749;28;20041;-60
2023/03/02 15:25:45;;;;;;;9.63;6.22;;;;;;;11.69;47.32;100908.03;8376808;28;20064;-59
2023/03/02 15:29:47;;;;;;;10.82;6.28;;;;;;;11.78;48.32;100907.19;8383189;28;20039;-59
2023/03/02 15:33:50;;;;;;;9.25;5.97;;;;;;;11.78;47.81;100909.06;8365609;28;20466;-60
2023/03/02 15:37:51;;;;;;;10.15;5.82;;;;;;;11.85;47.94;100915.63;8384108;28;20064;-59
2023/03/02 15:41:52;;;;;;;10.45;6.38;;;;;;;11.79;47.73;100910.75;8391017;28;20048;-60
2023/03/02 15:45:53;;;;;;;9.40;5.65;;;;;;;11.70;47.97;100908.88;8391712;28;20040;-59
2023/03/02 15:49:53;;;;;;;9.88;5.68;;;;;;;11.62;47.66;100912.28;8379638;28;20202;-60
2023/03/02 15:53:54;;;;;;;13.18;6.28;;;;;;;11.59;48.14;100922.53;8360710;28;20581;-60
2023/03/02 15:57:56;;;;;;;9.88;5.63;;;;;;;11.54;48.41;100914.81;8388350;28;20296;-60
2023/03/02 16:01:58;;;;;;;14.77;5.85;;;;;;;11.47;48.27;100908.19;8384150;28;20482;-59
2023/03/02 16:05:59;;;;;;;9.45;5.93;;;;;;;11.45;48.48;100921.03;8375576;28;20070;-60
2023/03/02 16:09:59;;;;;;;10.60;5.55;;;;;;;11.29;48.65;100912.53;8353078;28;20541;-60
2023/03/02 16:14:00;;;;;;;8.68;5.18;;;;;;;11.28;48.17;100924.38;8379544;28;20044;-60
2023/03/02 16:18:00;;;;;;;10.13;6.03;;;;;;;11.24;48.02;100928.34;8365360;28;20696;-60
2023/03/02 16:22:00;;;;;;;11.23;5.70;;;;;;;11.17;48.06;100921.78;8372418;28;20386;-59
2023/03/02 16:26:13;;;;;;;8.60;5.43;;;;;;;11.13;47.63;100925.72;8378388;28;20066;-60
2023/03/02 16:30:14;;;;;;;11.00;5.00;;;;;;;11.05;47.99;100928.25;8353565;28;20061;-59
2023/03/02 16:34:16;;;;;;;5.80;4.60;;;;;;;10.98;47.96;100928.91;8353670;28;20064;-60
2023/03/02 16:38:16;;;;;;;10.18;5.00;;;;;;;10.80;48.82;100939.44;8367461;28;20037;-60
2023/03/02 16:42:17;;;;;;;8.77;4.72;;;;;;;10.70;48.55;100943.94;8372173;28;20037;-60
2023/03/02 16:46:19;;;;;;;8.55;4.93;;;;;;;10.64;48.67;100949.88;8369638;28;20257;-60
2023/03/02 16:50:19;;;;;;;9.95;5.40;;;;;;;10.53;49.14;100947.25;8372713;28;20055;-59
2023/03/02 16:54:20;;;;;;;9.20;5.30;;;;;;;10.47;49.24;100958.56;8353936;28;20060;-60
2023/03/02 16:58:20;;;;;;;7.38;4.47;;;;;;;10.27;49.93;100950.44;8381784;28;20056;-60
2023/03/02 17:02:21;;;;;;;9.25;5.13;;;;;;;10.22;50.28;100964.31;8383654;28;20070;-61
2023/03/02 17:06:23;;;;;;;12.95;5.43;;;;;;;10.03;51.04;100955.97;8356486;28;20044;-53
2023/03/02 17:10:24;;;;;;;9.10;5.03;;;;;;;9.96;51.13;100963.72;8362964;28;20929;-54
2023/03/02 17:14:24;;;;;;;7.57;4.63;;;;;;;9.89;51.83;100967.91;8370405;28;20086;-54
2023/03/02 17:18:26;;;;;;;7.45;4.57;;;;;;;9.80;51.92;100968.63;8374909;28;20414;-54
2023/03/02 17:22:26;;;;;;;12.98;5.00;;;;;;;9.74;52.00;100976.41;8384262;28;20585;-53
2023/03/02 17:26:27;;;;;;;11.70;4.85;;;;;;;9.58;52.23;100981.31;8375981;28;20052;-54
2023/03/02 17:30:27;;;;;;;7.13;4.93;;;;;;;9.49;52.88;100991.00;8359345;28;20048;-54
2023/03/02 17:34:30;;;;;;;7.10;4.47;;;;;;;9.32;53.83;100993.31;8362680;28;20173;-55
2023/03/02 17:38:30;;;;;;;11.43;5.10;;;;;;;9.19;54.29;100992.56;8351152;28;20044;-54
2023/03/02 17:42:31;;;;;;;9.77;5.65;;;;;;;9.08;54.49;100995.22;8377629;28;20049;-55
2023/03/02 17:46:32;;;;;;;9.18;5.78;;;;;;;9.01;55.10;101002.97;8375141;28;20036;-55
2023/03/02 17:50:32;;;;;;;10.82;5.70;;;;;;;8.94;55.14;101008.94;8361557;28;20041;-59
2023/03/02 17:54:33;;;;;;;10.63;5.30;;;;;;;8.81;55.78;101014.41;8368266;28;20491;-61
2023/03/02 17:58:34;;;;;;;11.57;6.55;;;;;;;8.82;55.75;101016.16;8370435;28;20048;-60
2023/03/02 18:02:34;;;;;;;9.90;6.15;;;;;;;8.88;55.45;101025.59;8359034;28;20040;-60
2023/03/02 18:06:35;;;;;;;11.15;5.72;;;;;;;8.86;55.47;101027.53;8358090;28;20052;-59
2023/03/02 18:10:35;;;;;;;13.43;5.63;;;;;;;8.72;56.02;101025.06;8347408;28;20474;-60
2023/03/02 18:14:36;;;;;;;9.82;5.20;;;;;;;8.63;56.52;101036.53;8361450;28;20044;-54
2023/03/02 18:18:37;;;;;;;11.45;5.38;;;;;;;8.63;56.89;101040.06;8387761;28;20325;-63
2023/03/02 18:22:37;;;;;;;11.15;5.72;;;;;;;8.64;56.58;101049.00;8388328;28;20070;-59
2023/03/02 18:26:38;;;;;;;9.80;6.63;;;;;;;8.69;56.47;101057.63;8383149;28;20032;-59
2023/03/02 18:30:38;;;;;;;12.35;5.78;;;;;;;8.54;57.06;101061.47;8378320;28;20362;-59
2023/03/02 18:34:39;;;;;;;10.65;5.55;;;;;;;8.47;57.60;101068.25;8375096;28;20048;-52
2023/03/02 18:38:39;;;;;;;15.30;6.57;;;;;;;8.35;57.64;101063.81;8371236;28;20271;-54